Time;durP1;ratioP1;P1;durP2;ratioP2;P2;SDS_P1;SDS_P2;PMS_P1;PMS_P2;Temp;Humidity;BMP_temperature;BMP_pressure;BME280_temperature;BME280_humidity;BME280_pressure;Samples;Min_cycle;Max_cycle;Signal;HPM_P1;HPM_P2
2023/07/27 00:00:49;;;;;;;2.53;1.38;;;21.10;78.90;;;;;;5098683;28;20028;-76
2023/07/27 00:03:14;;;;;;;2.47;1.33;;;21.10;78.90;;;;;;5116744;28;20035;-75
2023/07/27 00:05:40;;;;;;;1.70;1.23;;;21.10;78.90;;;;;;5116903;28;20031;-75
2023/07/27 00:08:06;;;;;;;2.85;1.70;;;21.10;78.90;;;;;;5098474;28;20460;-75
2023/07/27 00:10:31;;;;;;;2.10;1.45;;;21.10;78.90;;;;;;5116446;28;20063;-75
2023/07/27 00:12:57;;;;;;;2.72;1.10;;;21.10;79.00;;;;;;5116842;28;20412;-76
2023/07/27 00:15:23;;;;;;;1.88;0.93;;;21.10;78.90;;;;;;5099004;28;20035;-75
2023/07/27 00:17:48;;;;;;;2.00;1.35;;;21.10;78.80;;;;;;5099611;28;20084;-75
2023/07/27 00:20:14;;;;;;;3.53;1.60;;;21.10;78.70;;;;;;5098498;28;20031;-75
2023/07/27 00:22:40;;;;;;;2.22;1.17;;;21.10;78.60;;;;;;5098533;28;20102;-76
2023/07/27 00:25:06;;;;;;;2.95;1.13;;;21.10;78.50;;;;;;5116669;28;20028;-75
2023/07/27 00:27:31;;;;;;;1.67;1.05;;;21.10;78.20;;;;;;5117698;28;20035;-75
2023/07/27 00:29:57;;;;;;;1.80;1.00;;;21.10;78.20;;;;;;5099099;28;20419;-75
2023/07/27 00:32:23;;;;;;;2.00;1.30;;;21.10;78.20;;;;;;5117147;28;20031;-75
2023/07/27 00:34:53;;;;;;;1.67;1.10;;;21.00;78.20;;;;;;5116860;28;20024;-75
2023/07/27 00:37:19;;;;;;;2.33;1.23;;;21.10;78.30;;;;;;5117505;28;20110;-76
2023/07/27 00:39:44;;;;;;;2.20;1.10;;;21.10;77.10;;;;;;5098217;28;20116;-75
2023/07/27 00:42:10;;;;;;;1.70;1.15;;;20.90;77.10;;;;;;5117814;28;20051;-76
2023/07/27 00:44:36;;;;;;;5.43;1.25;;;20.90;77.40;;;;;;5118876;28;20028;-76
2023/07/27 00:47:01;;;;;;;3.42;1.27;;;20.90;77.50;;;;;;5119502;28;20019;-75
2023/07/27 00:49:28;;;;;;;2.55;1.33;;;20.80;77.80;;;;;;5117620;28;20031;-75
2023/07/27 00:51:54;;;;;;;3.88;1.55;;;20.90;78.10;;;;;;5119558;28;20040;-76
2023/07/27 00:54:20;;;;;;;2.75;1.60;;;20.90;78.10;;;;;;5118935;28;20117;-76
2023/07/27 00:56:46;;;;;;;5.90;2.75;;;20.80;78.20;;;;;;5099443;28;20053;-76
2023/07/27 00:59:12;;;;;;;6.25;2.53;;;20.70;78.80;;;;;;5097284;28;20060;-75
2023/07/27 01:01:38;;;;;;;3.45;2.70;;;20.50;79.60;;;;;;5098532;28;20039;-75
2023/07/27 01:04:04;;;;;;;3.22;2.58;;;20.20;80.90;;;;;;5096946;28;20028;-75
2023/07/27 01:06:30;;;;;;;4.65;3.00;;;20.10;81.90;;;;;;5115657;28;20031;-75
2023/07/27 01:08:56;;;;;;;6.05;2.78;;;20.00;83.50;;;;;;5115239;28;20035;-75
2023/07/27 01:11:50;;;;;;;6.35;3.15;;;19.90;84.00;;;;;;5096907;28;20088;-75
2023/07/27 01:14:24;;;;;;;5.35;3.35;;;19.70;84.80;;;;;;5112277;28;20042;-75
2023/07/27 01:17:05;;;;;;;3.17;2.88;;;19.70;85.80;;;;;;5116127;28;20051;-76
2023/07/27 01:19:56;;;;;;;5.18;3.70;;;19.50;86.60;;;;;;5115684;28;20519;-76
2023/07/27 01:22:31;;;;;;;6.25;3.78;;;19.40;87.30;;;;;;5099446;28;20024;-76
2023/07/27 01:25:03;;;;;;;4.07;2.88;;;19.30;88.00;;;;;;5116296;28;20022;-76
2023/07/27 01:27:48;;;;;;;7.30;3.60;;;19.30;88.30;;;;;;5116108;28;20023;-76
2023/07/27 01:30:26;;;;;;;5.43;3.70;;;19.20;89.50;;;;;;5115087;28;20028;-76
2023/07/27 01:33:05;;;;;;;4.72;2.92;;;19.10;89.70;;;;;;5115342;28;20459;-76
2023/07/27 01:35:39;;;;;;;5.50;3.47;;;19.10;89.90;;;;;;5116644;28;20031;-76
2023/07/27 01:38:07;;;;;;;2.50;2.00;;;19.10;90.20;;;;;;5118445;28;20050;-76
2023/07/27 01:40:34;;;;;;;6.15;3.38;;;19.10;90.20;;;;;;5120901;28;20035;-76
2023/07/27 01:43:01;;;;;;;4.50;3.08;;;19.10;90.60;;;;;;5099800;28;20059;-76
2023/07/27 01:45:26;;;;;;;5.60;2.90;;;19.10;90.80;;;;;;5120570;28;20112;-76
2023/07/27 01:47:53;;;;;;;3.42;1.92;;;19.00;91.10;;;;;;5117963;28;20475;-76
2023/07/27 01:50:19;;;;;;;2.63;2.20;;;19.00;91.10;;;;;;5118812;28;20090;-76
2023/07/27 01:52:46;;;;;;;3.28;2.22;;;19.10;91.00;;;;;;5121104;28;20032;-76
2023/07/27 01:55:15;;;;;;;3.35;2.00;;;19.10;91.00;;;;;;5123169;28;20053;-77
2023/07/27 01:57:43;;;;;;;4.47;2.47;;;19.10;91.00;;;;;;5124107;28;20027;-76
2023/07/27 02:00:10;;;;;;;2.67;2.00;;;19.20;91.00;;;;;;5122746;28;20031;-76
2023/07/27 02:02:36;;;;;;;2.60;1.70;;;19.30;91.20;;;;;;5124081;28;20503;-76
2023/07/27 02:05:01;;;;;;;4.93;2.33;;;19.30;90.70;;;;;;5121695;28;20024;-76
2023/07/27 02:07:27;;;;;;;2.67;1.88;;;19.40;90.90;;;;;;5101439;28;20028;-76
2023/07/27 02:09:53;;;;;;;2.17;1.83;;;19.40;90.90;;;;;;5118787;28;20028;-76
2023/07/27 02:12:37;;;;;;;2.97;1.85;;;19.50;90.70;;;;;;5115892;28;20046;-76
2023/07/27 02:15:07;;;;;;;2.88;1.70;;;19.50;90.50;;;;;;5115626;28;20073;-76
2023/07/27 02:17:45;;;;;;;2.20;1.48;;;19.60;90.50;;;;;;5098238;28;20035;-76
2023/07/27 02:20:13;;;;;;;2.67;1.50;;;19.60;90.40;;;;;;5115616;28;20024;-76
2023/07/27 02:22:40;;;;;;;3.00;1.83;;;19.60;90.40;;;;;;5116212;28;20031;-76
2023/07/27 02:25:06;;;;;;;3.92;1.83;;;19.70;90.50;;;;;;5114848;28;20030;-76
2023/07/27 02:27:33;;;;;;;2.40;1.55;;;19.70;90.60;;;;;;5115682;28;20038;-76
2023/07/27 02:29:59;;;;;;;4.13;1.85;;;19.70;90.70;;;;;;5116098;28;20093;-76
2023/07/27 02:32:25;;;;;;;3.05;2.08;;;19.70;90.70;;;;;;5097124;28;20429;-76
2023/07/27 02:34:51;;;;;;;2.78;1.77;;;19.70;90.60;;;;;;5116435;28;20028;-76
2023/07/27 02:37:16;;;;;;;3.13;1.70;;;19.70;90.60;;;;;;5099771;28;20027;-76
2023/07/27 02:39:42;;;;;;;3.00;1.50;;;19.70;90.60;;;;;;5098806;28;20070;-76
2023/07/27 02:42:07;;;;;;;2.67;1.67;;;19.70;90.60;;;;;;5116284;28;20032;-76
2023/07/27 02:44:33;;;;;;;2.53;1.63;;;19.80;90.60;;;;;;5119152;28;20157;-76
2023/07/27 02:46:58;;;;;;;3.42;2.45;;;19.70;90.50;;;;;;5119304;28;20459;-76
2023/07/27 02:49:24;;;;;;;2.85;1.98;;;19.80;90.70;;;;;;5101103;28;20031;-76
2023/07/27 02:51:50;;;;;;;2.70;1.90;;;19.80;91.10;;;;;;5084650;28;20035;-75
2023/07/27 02:54:15;;;;;;;2.97;1.67;;;19.70;91.00;;;;;;5119359;28;20031;-76
2023/07/27 02:56:41;;;;;;;2.33;1.52;;;19.70;90.90;;;;;;5117428;28;20039;-76
2023/07/27 02:59:06;;;;;;;2.10;1.90;;;19.70;91.00;;;;;;5118880;28;20056;-76
2023/07/27 03:01:32;;;;;;;2.38;1.90;;;19.80;90.90;;;;;;5122438;28;20039;-76
2023/07/27 03:03:58;;;;;;;3.58;1.98;;;19.70;90.90;;;;;;5124690;28;20028;-76
2023/07/27 03:06:23;;;;;;;2.33;1.90;;;19.70;91.10;;;;;;5092107;28;20036;-76
2023/07/27 03:08:49;;;;;;;2.22;1.52;;;19.70;91.00;;;;;;5123742;28;20039;-76
2023/07/27 03:11:14;;;;;;;3.03;2.40;;;19.70;91.00;;;;;;5116282;28;20379;-76
2023/07/27 03:13:41;;;;;;;2.28;2.08;;;19.70;90.90;;;;;;5100652;28;20032;-76
2023/07/27 03:16:06;;;;;;;3.45;2.00;;;19.80;90.90;;;;;;5085543;28;20031;-76
2023/07/27 03:18:33;;;;;;;3.58;2.30;;;19.70;90.90;;;;;;5119873;28;20043;-77
2023/07/27 03:21:04;;;;;;;5.05;2.50;;;19.80;90.90;;;;;;5121849;28;20031;-77
2023/07/27 03:23:29;;;;;;;4.65;3.25;;;19.80;91.00;;;;;;5121180;28;20121;-76
2023/07/27 03:25:55;;;;;;;5.32;3.70;;;19.70;91.20;;;;;;5119633;28;20043;-76
2023/07/27 03:28:20;;;;;;;5.82;3.38;;;19.60;91.80;;;;;;5118029;28;20031;-76
2023/07/27 03:30:46;;;;;;;4.60;3.10;;;19.50;92.10;;;;;;5118657;28;20047;-76
2023/07/27 03:33:12;;;;;;;5.13;2.90;;;19.40;92.10;;;;;;5120701;28;20023;-76
2023/07/27 03:35:37;;;;;;;5.93;4.85;;;19.50;92.20;;;;;;5107489;28;20035;-76
2023/07/27 03:38:03;;;;;;;6.53;4.35;;;19.40;92.70;;;;;;5124192;28;20478;-76
2023/07/27 03:40:29;;;;;;;6.22;4.32;;;19.30;93.00;;;;;;5127798;28;20064;-76
2023/07/27 03:42:55;;;;;;;7.07;4.63;;;19.30;93.00;;;;;;5129655;28;20027;-77
2023/07/27 03:45:20;;;;;;;6.50;4.70;;;19.20;93.00;;;;;;5129628;28;20028;-76
2023/07/27 03:47:46;;;;;;;6.28;5.25;;;19.20;93.10;;;;;;5130815;28;20107;-76
2023/07/27 03:50:13;;;;;;;4.22;3.03;;;19.10;93.40;;;;;;5113798;28;20035;-76
2023/07/27 03:52:39;;;;;;;5.18;3.95;;;19.10;93.40;;;;;;5127888;28;20036;-77
2023/07/27 03:55:05;;;;;;;6.82;4.80;;;19.00;93.90;;;;;;5120270;28;20055;-76
2023/07/27 03:57:34;;;;;;;8.13;5.88;;;19.00;94.00;;;;;;5128398;28;20032;-76
2023/07/27 04:00:00;;;;;;;7.45;5.70;;;18.90;94.30;;;;;;5128556;28;20131;-76
2023/07/27 04:02:27;;;;;;;8.38;6.88;;;18.80;94.40;;;;;;5129025;28;20085;-76
2023/07/27 04:04:53;;;;;;;8.35;6.15;;;18.70;95.00;;;;;;5110558;28;20024;-76
2023/07/27 04:07:19;;;;;;;11.77;7.68;;;18.60;95.20;;;;;;5077410;28;20134;-76
2023/07/27 04:09:45;;;;;;;6.00;5.28;;;18.60;95.50;;;;;;5130588;28;20031;-76
2023/07/27 04:12:10;;;;;;;6.07;5.15;;;18.60;95.70;;;;;;5130638;28;20027;-77
2023/07/27 04:14:37;;;;;;;7.88;6.85;;;18.60;95.80;;;;;;5130064;28;20099;-76
2023/07/27 04:17:03;;;;;;;7.43;5.45;;;18.60;96.10;;;;;;5130198;28;20028;-76
2023/07/27 04:19:29;;;;;;;9.05;4.90;;;18.60;96.00;;;;;;5128483;28;20066;-77
2023/07/27 04:21:54;;;;;;;5.07;3.22;;;18.60;96.00;;;;;;5110097;28;20036;-77
2023/07/27 04:24:20;;;;;;;8.23;5.70;;;18.60;95.80;;;;;;5127857;28;20039;-76
2023/07/27 04:26:46;;;;;;;4.88;3.95;;;18.60;96.30;;;;;;5128276;28;20028;-76
2023/07/27 04:29:11;;;;;;;6.25;5.13;;;18.40;96.40;;;;;;5127777;28;20353;-77
2023/07/27 04:31:37;;;;;;;6.75;4.95;;;18.40;96.70;;;;;;5128210;28;20031;-77
2023/07/27 04:34:03;;;;;;;5.20;3.92;;;18.30;96.80;;;;;;5109813;28;20039;-77
2023/07/27 04:36:28;;;;;;;5.57;4.80;;;18.30;97.00;;;;;;5126769;28;20036;-76
2023/07/27 04:38:54;;;;;;;4.20;3.30;;;18.30;97.10;;;;;;5126019;28;20035;-76
2023/07/27 04:41:20;;;;;;;6.55;4.38;;;18.20;97.20;;;;;;5127679;28;20031;-76
2023/07/27 04:43:45;;;;;;;3.47;2.80;;;18.20;97.40;;;;;;5108609;28;20516;-76
2023/07/27 04:46:11;;;;;;;5.65;3.92;;;18.20;97.30;;;;;;5109197;28;20032;-76
2023/07/27 04:48:36;;;;;;;5.93;3.63;;;18.20;97.30;;;;;;5125274;28;20032;-76
2023/07/27 04:51:02;;;;;;;5.60;4.13;;;18.20;97.40;;;;;;5124970;28;20035;-76
2023/07/27 04:53:29;;;;;;;4.32;3.33;;;18.20;97.70;;;;;;5092184;28;20048;-76
2023/07/27 04:55:54;;;;;;;5.47;3.55;;;18.20;97.80;;;;;;5125916;28;20027;-76
2023/07/27 04:58:20;;;;;;;5.10;3.60;;;18.20;97.80;;;;;;5126135;28;20052;-76
2023/07/27 05:00:53;;;;;;;4.25;3.25;;;18.20;97.80;;;;;;5126115;28;20039;-76
2023/07/27 05:03:18;;;;;;;7.50;3.75;;;18.30;97.80;;;;;;5126029;28;20031;-75
2023/07/27 05:05:44;;;;;;;7.10;3.88;;;18.30;97.80;;;;;;5127203;28;20039;-76
2023/07/27 05:08:10;;;;;;;4.97;3.10;;;18.30;97.80;;;;;;5108221;28;20028;-76
2023/07/27 05:10:38;;;;;;;4.47;3.03;;;18.30;97.80;;;;;;5127828;28;20065;-76
2023/07/27 05:13:03;;;;;;;4.10;3.10;;;18.30;97.80;;;;;;5126344;28;20020;-76
2023/07/27 05:15:29;;;;;;;3.97;2.58;;;18.30;98.00;;;;;;5106692;28;20486;-76
2023/07/27 05:17:54;;;;;;;4.65;2.67;;;18.30;98.10;;;;;;5124612;28;20032;-76
2023/07/27 05:20:20;;;;;;;5.47;3.40;;;18.30;98.00;;;;;;5123487;28;20031;-75
2023/07/27 05:22:46;;;;;;;3.42;2.25;;;18.40;97.90;;;;;;5106259;28;20053;-75
2023/07/27 05:25:13;;;;;;;5.60;3.20;;;18.40;97.70;;;;;;5121247;28;20028;-75
2023/07/27 05:27:39;;;;;;;3.03;2.05;;;18.50;97.70;;;;;;5123708;28;20115;-76
2023/07/27 05:30:05;;;;;;;3.05;2.75;;;18.50;97.80;;;;;;5119435;28;20071;-75
2023/07/27 05:32:31;;;;;;;2.50;2.30;;;18.40;98.00;;;;;;5117228;28;20542;-76
2023/07/27 05:34:57;;;;;;;2.38;1.92;;;18.40;98.00;;;;;;5117532;28;20099;-75
2023/07/27 05:37:22;;;;;;;3.33;1.80;;;18.40;97.80;;;;;;5100024;28;20023;-75
2023/07/27 05:39:48;;;;;;;2.33;1.95;;;18.50;97.70;;;;;;5117303;28;20074;-76
2023/07/27 05:42:14;;;;;;;3.30;2.30;;;18.60;97.70;;;;;;5118742;28;20114;-75
2023/07/27 05:44:39;;;;;;;2.83;2.00;;;18.60;97.70;;;;;;5117010;28;20046;-76
2023/07/27 05:47:05;;;;;;;2.35;1.85;;;18.60;97.60;;;;;;5115826;28;20076;-75
2023/07/27 05:49:31;;;;;;;4.95;2.30;;;18.70;97.60;;;;;;5115448;28;20035;-76
2023/07/27 05:51:57;;;;;;;4.07;2.60;;;18.60;98.10;;;;;;5115750;28;20106;-75
2023/07/27 05:54:22;;;;;;;1.98;1.75;;;18.60;98.20;;;;;;5116373;28;20062;-76
2023/07/27 05:56:48;;;;;;;2.50;1.60;;;18.60;98.30;;;;;;5099696;28;20046;-75
2023/07/27 05:59:14;;;;;;;2.83;1.98;;;18.50;98.00;;;;;;5098494;28;20062;-75
2023/07/27 06:01:39;;;;;;;2.38;1.60;;;18.50;98.60;;;;;;5117313;28;20506;-75
2023/07/27 06:04:06;;;;;;;4.18;1.70;;;18.50;98.60;;;;;;5117904;28;20119;-75
2023/07/27 06:06:32;;;;;;;2.55;1.40;;;18.50;98.60;;;;;;5118812;28;20039;-75
2023/07/27 06:08:58;;;;;;;1.70;1.52;;;18.50;98.50;;;;;;5099357;28;20098;-75
2023/07/27 06:11:23;;;;;;;1.67;1.17;;;18.50;98.60;;;;;;5117713;28;20036;-75
2023/07/27 06:13:49;;;;;;;1.75;1.30;;;18.50;98.50;;;;;;5083601;28;20387;-76
2023/07/27 06:16:15;;;;;;;3.47;1.88;;;18.60;98.50;;;;;;5100552;28;20069;-76
2023/07/27 06:18:41;;;;;;;1.65;1.23;;;18.50;98.70;;;;;;5100297;28;20050;-75
2023/07/27 06:21:06;;;;;;;1.60;0.98;;;18.50;98.60;;;;;;5119150;28;20107;-76
2023/07/27 06:23:32;;;;;;;1.80;1.27;;;18.50;98.60;;;;;;5119640;28;20024;-76
2023/07/27 06:25:58;;;;;;;2.20;1.20;;;18.60;98.60;;;;;;5118317;28;20032;-75
2023/07/27 06:28:23;;;;;;;2.22;0.95;;;18.50;99.00;;;;;;5118303;28;20031;-76
2023/07/27 06:30:49;;;;;;;3.42;0.90;;;18.40;99.30;;;;;;5099831;28;20383;-76
2023/07/27 06:33:15;;;;;;;1.55;1.15;;;18.50;99.30;;;;;;5117263;28;20024;-76
2023/07/27 06:35:40;;;;;;;1.25;0.90;;;18.50;99.20;;;;;;5118439;28;20039;-76
2023/07/27 06:38:07;;;;;;;1.70;0.90;;;18.50;99.30;;;;;;5116657;28;20051;-76
2023/07/27 06:40:39;;;;;;;1.50;1.00;;;18.60;99.10;;;;;;5115933;28;20077;-76
2023/07/27 06:43:05;;;;;;;1.67;0.90;;;18.60;98.80;;;;;;5117613;28;20027;-76
2023/07/27 06:45:31;;;;;;;1.38;0.75;;;18.80;99.00;;;;;;5101982;28;20095;-76
2023/07/27 06:47:56;;;;;;;1.42;0.90;;;18.70;98.90;;;;;;5119164;28;20028;-76
2023/07/27 06:50:22;;;;;;;0.82;0.55;;;18.70;99.10;;;;;;5120292;28;20460;-76
2023/07/27 06:52:47;;;;;;;1.02;0.77;;;18.80;99.10;;;;;;5120649;28;20111;-76
2023/07/27 06:55:13;;;;;;;3.70;0.80;;;18.70;99.10;;;;;;5101980;28;20460;-76
2023/07/27 06:57:39;;;;;;;1.17;0.65;;;18.70;99.20;;;;;;5120196;28;20028;-77
2023/07/27 07:00:06;;;;;;;0.98;0.40;;;18.80;99.30;;;;;;5120275;28;20091;-77
2023/07/27 07:02:31;;;;;;;1.27;0.70;;;18.80;99.50;;;;;;5123382;28;20040;-76
2023/07/27 07:04:57;;;;;;;0.85;0.60;;;18.70;99.60;;;;;;5106926;28;20099;-76
2023/07/27 07:07:23;;;;;;;1.45;0.70;;;18.70;99.90;;;;;;5122395;28;20118;-77
2023/07/27 07:09:49;;;;;;;1.63;0.60;;;18.70;99.90;;;;;;5125153;28;20043;-77
2023/07/27 07:12:14;;;;;;;1.05;0.60;;;18.80;99.90;;;;;;5128088;28;20360;-77
2023/07/27 07:14:40;;;;;;;1.38;0.70;;;18.70;99.90;;;;;;5108518;28;20027;-77
2023/07/27 07:17:06;;;;;;;2.58;0.50;;;18.70;99.90;;;;;;5109021;28;20024;-77
2023/07/27 07:19:32;;;;;;;0.75;0.50;;;18.70;99.90;;;;;;5126477;28;20027;-77
2023/07/27 07:21:58;;;;;;;2.20;0.63;;;18.70;99.90;;;;;;5123244;28;20118;-77
2023/07/27 07:24:24;;;;;;;1.58;0.60;;;18.70;99.90;;;;;;5105008;28;20416;-77
2023/07/27 07:26:49;;;;;;;0.90;0.40;;;18.60;99.90;;;;;;5107518;28;20027;-77
2023/07/27 07:29:15;;;;;;;1.13;0.60;;;18.60;99.90;;;;;;5104460;28;20464;-77
2023/07/27 07:31:41;;;;;;;0.50;0.30;;;18.50;99.90;;;;;;5120082;28;20057;-77
2023/07/27 07:34:06;;;;;;;0.63;0.40;;;18.60;99.90;;;;;;5121500;28;20038;-77
2023/07/27 07:36:32;;;;;;;0.80;0.47;;;18.60;99.90;;;;;;5102394;28;20038;-77
2023/07/27 07:38:58;;;;;;;1.70;0.50;;;18.60;99.90;;;;;;5122551;28;20043;-78
2023/07/27 07:41:23;;;;;;;1.05;0.50;;;18.50;99.90;;;;;;5120925;28;20024;-77
2023/07/27 07:43:49;;;;;;;0.98;0.55;;;18.50;99.90;;;;;;5124631;28;20454;-77
2023/07/27 07:46:15;;;;;;;0.75;0.35;;;18.60;99.90;;;;;;5104819;28;20028;-77
2023/07/27 07:48:41;;;;;;;0.70;0.50;;;18.50;99.90;;;;;;5119384;28;20032;-78
2023/07/27 07:51:14;;;;;;;1.00;0.50;;;18.50;99.90;;;;;;5121872;28;20027;-77
2023/07/27 07:53:40;;;;;;;0.95;0.60;;;18.40;99.90;;;;;;5121993;28;20032;-77
2023/07/27 07:56:15;;;;;;;1.13;0.82;;;18.40;99.90;;;;;;5126269;28;20468;-77
2023/07/27 07:58:41;;;;;;;0.90;0.60;;;18.50;99.90;;;;;;5124125;28;20517;-77
2023/07/27 08:01:07;;;;;;;1.55;0.77;;;18.50;99.90;;;;;;5125958;28;20372;-77
2023/07/27 08:03:33;;;;;;;1.13;0.75;;;18.50;99.90;;;;;;5124130;28;20031;-77
2023/07/27 08:05:58;;;;;;;1.40;0.68;;;18.50;99.90;;;;;;5107123;28;20054;-76
2023/07/27 08:08:24;;;;;;;0.80;0.60;;;18.60;99.90;;;;;;5126028;28;20144;-75
2023/07/27 08:10:50;;;;;;;1.30;0.80;;;18.60;99.90;;;;;;5106337;28;20095;-77
2023/07/27 08:13:16;;;;;;;0.90;0.60;;;18.60;99.90;;;;;;5124417;28;20059;-77
2023/07/27 08:15:52;;;;;;;1.60;0.70;;;18.60;99.90;;;;;;5123601;28;20032;-77
2023/07/27 08:18:18;;;;;;;1.50;0.55;;;18.60;99.90;;;;;;5127154;28;20089;-78
2023/07/27 08:20:44;;;;;;;1.10;0.50;;;18.70;99.90;;;;;;5106440;28;20031;-77
2023/07/27 08:23:09;;;;;;;2.53;0.80;;;18.80;99.90;;;;;;5122479;28;20031;-77
2023/07/27 08:25:39;;;;;;;1.27;0.55;;;18.70;99.90;;;;;;5125621;28;20028;-77
2023/07/27 08:28:05;;;;;;;1.35;0.60;;;18.70;99.90;;;;;;5108729;28;20023;-77
2023/07/27 08:30:32;;;;;;;1.30;0.60;;;18.70;99.90;;;;;;5125595;28;20070;-77
2023/07/27 08:32:58;;;;;;;1.60;0.50;;;18.80;99.90;;;;;;5126364;28;20030;-77
2023/07/27 08:35:23;;;;;;;1.05;0.70;;;18.80;99.90;;;;;;5124393;28;20023;-76
2023/07/27 08:37:49;;;;;;;1.83;0.70;;;18.80;99.90;;;;;;5121549;28;20041;-78
2023/07/27 08:40:15;;;;;;;1.77;0.60;;;18.90;99.90;;;;;;5122692;28;20425;-77
2023/07/27 08:42:45;;;;;;;1.33;0.60;;;18.80;99.90;;;;;;5120428;28;20053;-76
2023/07/27 08:45:14;;;;;;;0.88;0.50;;;18.90;99.90;;;;;;5100588;28;20080;-77
2023/07/27 08:47:41;;;;;;;2.75;1.15;;;18.90;99.90;;;;;;5101125;28;20051;-77
2023/07/27 08:50:07;;;;;;;0.90;0.50;;;18.90;99.90;;;;;;5117598;28;20035;-76
2023/07/27 08:52:33;;;;;;;0.85;0.75;;;18.90;99.90;;;;;;5116931;28;20114;-76
2023/07/27 08:54:59;;;;;;;1.17;0.60;;;18.90;99.90;;;;;;5117468;28;20047;-77
2023/07/27 08:57:24;;;;;;;0.88;0.65;;;18.80;99.90;;;;;;5115377;28;20102;-76
2023/07/27 08:59:51;;;;;;;1.35;0.60;;;18.80;99.90;;;;;;5097625;28;20051;-76
2023/07/27 09:02:16;;;;;;;2.08;0.90;;;18.80;99.90;;;;;;5116113;28;20043;-76
2023/07/27 09:04:42;;;;;;;2.00;1.02;;;18.90;99.90;;;;;;5097615;28;20028;-76
2023/07/27 09:07:08;;;;;;;2.50;1.00;;;18.80;99.90;;;;;;5097900;28;20035;-76
2023/07/27 09:09:34;;;;;;;1.30;0.88;;;18.80;99.90;;;;;;5116235;28;20036;-76
2023/07/27 09:12:03;;;;;;;1.00;0.57;;;18.80;99.90;;;;;;5115629;28;20056;-76
2023/07/27 09:14:34;;;;;;;4.30;1.00;;;18.80;99.90;;;;;;5097374;28;20467;-76
2023/07/27 09:17:00;;;;;;;2.88;1.20;;;18.90;99.90;;;;;;5115751;28;20019;-76
2023/07/27 09:19:32;;;;;;;2.50;0.93;;;18.80;99.90;;;;;;5115955;28;20034;-76
2023/07/27 09:21:58;;;;;;;1.43;1.07;;;18.80;99.90;;;;;;5115558;28;20025;-76
2023/07/27 09:24:23;;;;;;;2.38;1.27;;;18.80;99.90;;;;;;5115550;28;20460;-76
2023/07/27 09:26:52;;;;;;;1.92;1.00;;;18.80;99.90;;;;;;5116784;28;20464;-77
2023/07/27 09:29:20;;;;;;;3.38;1.13;;;18.80;99.90;;;;;;5117687;28;20042;-76
2023/07/27 09:31:48;;;;;;;3.42;1.55;;;18.90;99.90;;;;;;5116206;28;20028;-77
2023/07/27 09:34:14;;;;;;;1.40;0.75;;;18.80;99.90;;;;;;5116959;28;20480;-77
2023/07/27 09:36:41;;;;;;;3.40;1.27;;;18.80;99.90;;;;;;5098556;28;20440;-76
2023/07/27 09:39:07;;;;;;;1.63;0.98;;;18.70;99.90;;;;;;5115733;28;20035;-76
2023/07/27 09:41:33;;;;;;;4.50;1.27;;;18.70;99.90;;;;;;5097177;28;20153;-77
2023/07/27 09:43:58;;;;;;;2.90;1.05;;;18.70;99.90;;;;;;5115034;28;20063;-77
2023/07/27 09:46:25;;;;;;;3.33;1.20;;;18.70;99.90;;;;;;5114962;28;20032;-76
2023/07/27 09:48:51;;;;;;;2.53;1.30;;;18.70;99.90;;;;;;5114308;28;20381;-76
2023/07/27 09:51:17;;;;;;;4.05;1.85;;;18.70;99.90;;;;;;5114681;28;20024;-76
2023/07/27 09:53:44;;;;;;;2.42;1.48;;;18.80;99.90;;;;;;5096484;28;20057;-76
2023/07/27 09:56:14;;;;;;;2.60;1.60;;;18.80;99.90;;;;;;5114519;28;20111;-76
2023/07/27 09:58:41;;;;;;;3.20;1.50;;;18.80;99.90;;;;;;5114835;28;20100;-76
2023/07/27 10:01:08;;;;;;;1.83;1.17;;;18.80;99.90;;;;;;5114922;28;20035;-76
2023/07/27 10:03:33;;;;;;;2.50;2.30;;;18.90;99.90;;;;;;5114457;28;20108;-76
2023/07/27 10:06:00;;;;;;;2.85;2.15;;;18.90;99.90;;;;;;5114588;28;20132;-76
2023/07/27 10:08:26;;;;;;;3.17;2.40;;;18.90;99.90;;;;;;5114617;28;20051;-76
2023/07/27 10:10:58;;;;;;;2.90;2.70;;;18.90;99.90;;;;;;5114669;28;20082;-76
2023/07/27 10:13:23;;;;;;;2.60;2.40;;;18.90;99.90;;;;;;5096776;28;20032;-78
2023/07/27 10:15:51;;;;;;;4.47;3.55;;;19.00;99.90;;;;;;5115102;28;20031;-76
2023/07/27 10:18:22;;;;;;;4.32;3.17;;;18.90;99.90;;;;;;5114721;28;20035;-76
2023/07/27 10:20:47;;;;;;;2.95;2.58;;;19.00;99.90;;;;;;5114534;28;20127;-76
2023/07/27 10:23:18;;;;;;;3.25;2.60;;;18.90;99.90;;;;;;5114511;28;20051;-76
2023/07/27 10:25:56;;;;;;;3.20;2.88;;;18.90;99.90;;;;;;5114971;28;20024;-77
2023/07/27 10:28:31;;;;;;;3.85;3.30;;;18.90;99.90;;;;;;5114903;28;20417;-76
2023/07/27 10:31:15;;;;;;;3.67;2.70;;;18.90;99.90;;;;;;5113823;28;20031;-77
2023/07/27 10:33:46;;;;;;;3.03;2.50;;;18.90;99.90;;;;;;5096055;28;20101;-75
2023/07/27 10:36:13;;;;;;;7.10;3.00;;;18.90;99.90;;;;;;5116012;28;20032;-75
2023/07/27 10:38:38;;;;;;;4.85;3.70;;;18.90;99.90;;;;;;5118500;28;20051;-76
2023/07/27 10:41:14;;;;;;;3.05;2.75;;;18.90;99.90;;;;;;5118701;28;20046;-76
2023/07/27 10:44:10;;;;;;;3.30;2.42;;;18.90;99.90;;;;;;5118508;28;20027;-76
2023/07/27 10:46:43;;;;;;;3.55;3.00;;;19.00;99.90;;;;;;5086793;28;20039;-76
2023/07/27 10:49:11;;;;;;;5.03;3.15;;;19.00;99.90;;;;;;5118009;28;20035;-77
2023/07/27 10:51:37;;;;;;;3.83;3.50;;;19.00;99.90;;;;;;5118696;28;20427;-76
2023/07/27 10:54:03;;;;;;;4.45;3.95;;;19.10;99.90;;;;;;5083672;28;20020;-76
2023/07/27 10:56:31;;;;;;;4.18;3.75;;;19.10;99.90;;;;;;5118053;28;20039;-77
2023/07/27 10:59:00;;;;;;;4.45;3.28;;;19.00;99.90;;;;;;5117988;28;20051;-76
2023/07/27 11:01:33;;;;;;;4.10;3.80;;;19.10;99.90;;;;;;5104923;28;20031;-77
2023/07/27 11:03:59;;;;;;;4.60;4.20;;;19.10;99.90;;;;;;5132872;28;20031;-79
2023/07/27 11:06:28;;;;;;;4.30;3.95;;;19.10;99.90;;;;;;5130758;28;20063;-78
2023/07/27 11:08:56;;;;;;;4.88;4.32;;;19.10;99.90;;;;;;5129247;28;20027;-79
2023/07/27 11:11:24;;;;;;;4.78;4.25;;;19.10;99.90;;;;;;5131183;28;20028;-78
2023/07/27 11:13:50;;;;;;;5.32;4.90;;;19.00;99.90;;;;;;5133005;28;20035;-79
2023/07/27 11:16:16;;;;;;;4.75;4.22;;;19.00;99.90;;;;;;5131556;28;20087;-79
2023/07/27 11:18:42;;;;;;;5.50;4.88;;;19.00;99.90;;;;;;5127040;28;20026;-77
2023/07/27 11:21:12;;;;;;;4.63;4.22;;;19.00;99.90;;;;;;5109051;28;20213;-80
2023/07/27 11:23:46;;;;;;;4.60;4.20;;;19.10;99.90;;;;;;5124028;28;20444;-79
2023/07/27 11:26:13;;;;;;;4.18;3.88;;;19.10;99.90;;;;;;5113217;27;20008;-79
2023/07/27 11:28:40;;;;;;;4.55;4.15;;;19.00;99.90;;;;;;5122933;28;20031;-80
2023/07/27 11:31:07;;;;;;;7.20;4.18;;;19.10;99.90;;;;;;5125118;28;20046;-80
2023/07/27 11:33:35;;;;;;;4.45;3.90;;;19.10;99.90;;;;;;5106114;28;20384;-78
2023/07/27 11:36:00;;;;;;;4.05;3.70;;;19.10;99.90;;;;;;5126317;28;20028;-78
2023/07/27 11:38:27;;;;;;;4.38;3.78;;;19.10;99.90;;;;;;5093987;28;20035;-80
2023/07/27 11:40:57;;;;;;;4.30;3.92;;;19.10;99.90;;;;;;5125951;28;20035;-79
2023/07/27 11:43:27;;;;;;;4.18;3.72;;;19.10;99.90;;;;;;5122774;28;20031;-80
2023/07/27 11:45:56;;;;;;;3.63;3.33;;;19.10;99.90;;;;;;5084525;28;20472;-79
2023/07/27 11:48:27;;;;;;;4.97;3.55;;;19.10;99.90;;;;;;5121206;28;20128;-80
2023/07/27 11:50:55;;;;;;;3.97;3.60;;;19.10;99.90;;;;;;5121552;28;20074;-80
2023/07/27 11:53:26;;;;;;;4.35;3.33;;;19.10;99.90;;;;;;5120439;28;20027;-79
2023/07/27 11:55:52;;;;;;;4.20;3.80;;;19.20;99.90;;;;;;5121600;28;20038;-79
2023/07/27 11:58:18;;;;;;;4.07;3.78;;;19.20;99.90;;;;;;5123460;28;20051;-79
2023/07/27 12:00:50;;;;;;;5.93;3.67;;;19.20;99.90;;;;;;5124543;28;20473;-79
2023/07/27 12:03:20;;;;;;;3.78;3.47;;;19.20;99.90;;;;;;5105016;28;20380;-77
2023/07/27 12:05:46;;;;;;;3.97;3.60;;;19.20;99.90;;;;;;5121888;28;20043;-78
2023/07/27 12:08:19;;;;;;;4.00;3.70;;;19.30;99.90;;;;;;5101176;28;20023;-77
2023/07/27 12:10:56;;;;;;;5.05;3.83;;;19.30;99.90;;;;;;5108081;28;20032;-78
2023/07/27 12:13:24;;;;;;;4.13;3.33;;;19.30;99.90;;;;;;5128524;28;20028;-78
2023/07/27 12:16:05;;;;;;;3.30;3.00;;;19.40;99.90;;;;;;5129562;28;20016;-79
2023/07/27 12:18:31;;;;;;;4.43;2.80;;;19.40;99.90;;;;;;5126618;28;20030;-79
2023/07/27 12:20:58;;;;;;;2.83;2.63;;;19.50;99.90;;;;;;5129025;28;20031;-79
2023/07/27 12:23:25;;;;;;;3.17;2.92;;;19.50;99.90;;;;;;5132729;28;20023;-79
2023/07/27 12:25:52;;;;;;;4.05;3.00;;;19.50;99.90;;;;;;5114434;28;20027;-79
2023/07/27 12:28:18;;;;;;;3.35;3.15;;;19.50;99.90;;;;;;5131956;28;20030;-78
2023/07/27 12:30:44;;;;;;;3.38;2.90;;;19.50;99.90;;;;;;5130156;28;20062;-81
2023/07/27 12:33:11;;;;;;;3.40;3.20;;;19.50;99.90;;;;;;5115647;28;20035;-81
2023/07/27 12:35:36;;;;;;;3.80;3.50;;;19.50;99.90;;;;;;5115871;28;20143;-82
2023/07/27 12:38:02;;;;;;;3.80;2.72;;;19.60;99.90;;;;;;5097621;28;20466;-79
2023/07/27 12:40:28;;;;;;;3.72;3.53;;;19.50;99.90;;;;;;5115791;28;20452;-79
2023/07/27 12:42:55;;;;;;;3.88;3.35;;;19.60;99.90;;;;;;5116051;28;20035;-80
2023/07/27 12:45:21;;;;;;;3.47;3.28;;;19.50;99.90;;;;;;5115561;28;20031;-79
2023/07/27 12:47:48;;;;;;;3.50;3.20;;;19.60;99.90;;;;;;5097288;28;20375;-80